LZPPLZKZ

Guest
Details From LZPP - Piestany
To LZKZ - Kosice
Flight Number -
Tags Decoded
Created
Modified
Stats Distance 108 nm / 201 km
Max Altitude 0 ft / 0 m
Waypoints 2
Social Downloads 1
Likes 0
Share VATSIM

Download

Looking for another format? Having issues loading an existing format? Contact us
Advertisement - Login to hide

Notes

Decoded

Route

NIT DEDIS

ID Type Via Altitude Latitude Longitude Leg Dist Tot Dist Heading (true) Name
O NIT NDB - 0 ft / 0 m 48.29836˚ 18.05244˚ - 0 nm - NITRA NDB
O DEDIS FIX - 0 ft / 0 m 48.63059˚ 20.72546˚ 108 nm 108 nm 78° / 80° -

Altitude Profile

Advertisement - Login to hide

LZPP

Details ICAO LZPP (PZY)
Name PIESTANY
Region Slovakia
Timezone Europe/Bratislava (UTC+1.0)
Stats Elevation 545 ft / 166 m (AMSL)
Location 48.625246° 17.828443°
Runways 1
Magnetic Variation 4.586° E

METAR

LZPP 171730Z VRB02KT 6000 FEW045 M01/M02 Q1020

Decode

TAF

Not found

Departure Runways

ID Width Length Bearing (true) Bearing (mag) Surface Threshold Offset Overrun Length
01 98 ft / 30 m 6,560 ft / 1,999 m 13.71° 9.12° Asphalt 0 ft / 0 m 0 ft / 0 m
19 98 ft / 30 m 6,560 ft / 1,999 m 193.72° 189.13° Asphalt 0 ft / 0 m 0 ft / 0 m

LZKZ

Details ICAO LZKZ (KSC)
Name KOSICE
Region Slovakia
Timezone Europe/Bratislava (UTC+1.0)
Stats Elevation 755 ft / 230 m (AMSL)
Location 48.663030° 21.241155°
Runways 1
Magnetic Variation 5.332° E

METAR

LZKZ 171730Z 01005KT CAVOK M01/M03 Q1018

Decode

TAF

Not found

Destination Runways

ID Width Length Bearing (true) Bearing (mag) Surface Threshold Offset Overrun Length
01 148 ft / 45 m 10,174 ft / 3,101 m 13.00° 7.67° Asphalt 0 ft / 0 m 0 ft / 0 m
19 148 ft / 45 m 10,174 ft / 3,101 m 193.00° 187.67° Asphalt 0 ft / 0 m 0 ft / 0 m

Approach Navaids

Runway Type Ident Frequency Range Bearing (true) Bearing (mag) Slope Elevation
01 Localiser KE 109.50 MHz 18 nm / 33 km 13.00° 7.67° - 739 ft / 225 m (AMSL)
01 Glidescope KE 109.50 MHz 10 nm / 19 km 13.00° 7.67° 3.00° 739 ft / 225 m (AMSL)

Popular Alternatives